Time;durP1;ratioP1;P1;durP2;ratioP2;P2;SDS_P1;SDS_P2;PMS_P1;PMS_P2;Temp;Humidity;BMP_temperature;BMP_pressure;BME280_temperature;BME280_humidity;BME280_pressure;Samples;Min_cycle;Max_cycle;Signal;HPM_P1;HPM_P2
2021/07/18 16:10:51;;;;;;;46.73;18.23;;;;;;;;;;284143;27;3251346;-79
2021/07/18 16:11:22;;;;;;;52.83;17.08;;;;;;;;;;349581;28;691;-77
2021/07/18 16:11:52;;;;;;;55.50;18.42;;;;;;;;;;323453;28;6930;-76
2021/07/18 16:12:22;;;;;;;59.00;18.98;;;;;;;;;;316080;28;7450;-77
2021/07/18 16:12:52;;;;;;;58.33;18.73;;;;;;;;;;318390;28;7929;-76
2021/07/18 16:13:22;;;;;;;50.60;17.40;;;;;;;;;;310922;28;7584;-77
2021/07/18 16:13:58;;;;;;;48.88;17.55;;;;;;;;;;317624;28;7259;-77
2021/07/18 16:14:40;;;;;;;54.45;17.88;;;;;;;;;;345345;28;644;-76
2021/07/18 16:15:18;;;;;;;72.22;17.63;;;;;;;;;;347911;28;707;-76
2021/07/18 16:15:55;;;;;;;68.50;17.42;;;;;;;;;;346690;28;691;-76
2021/07/18 16:16:26;;;;;;;63.92;17.90;;;;;;;;;;345426;28;672;-77
2021/07/18 16:17:18;;;;;;;63.90;19.42;;;;;;;;;;319464;28;7371;-77
2021/07/18 16:17:49;;;;;;;54.22;15.80;;;;;;;;;;345270;28;665;-78
2021/07/18 16:18:19;;;;;;;48.03;16.27;;;;;;;;;;345372;28;708;-78
2021/07/18 16:18:50;;;;;;;54.95;16.10;;;;;;;;;;345354;28;695;-78
2021/07/18 16:19:20;;;;;;;42.40;15.43;;;;;;;;;;345379;28;766;-78
2021/07/18 16:19:54;;;;;;;40.30;16.15;;;;;;;;;;345399;28;758;-78
2021/07/18 16:20:25;;;;;;;45.58;15.65;;;;;;;;;;345371;28;653;-78
2021/07/18 16:20:57;;;;;;;41.40;14.95;;;;;;;;;;345619;28;727;-78
2021/07/18 16:21:27;;;;;;;43.45;15.38;;;;;;;;;;346751;28;652;-78
2021/07/18 16:21:58;;;;;;;43.55;15.57;;;;;;;;;;346708;28;747;-78
2021/07/18 16:22:28;;;;;;;45.35;15.55;;;;;;;;;;345483;28;660;-78
2021/07/18 16:22:58;;;;;;;56.47;15.75;;;;;;;;;;345441;28;656;-78
2021/07/18 16:24:32;;;;;;;74.00;16.90;;;;;;;;;;593846;27;3303588;-72
2021/07/18 16:35:40;;;;;;;38.14;11.16;;;;;;;;;;575444;27;4145699;-77
2021/07/18 16:36:11;;;;;;;39.90;13.53;;;;;;;;;;350970;28;686;-75
2021/07/18 16:36:41;;;;;;;40.83;12.13;;;;;;;;;;350953;28;679;-75
2021/07/18 16:37:13;;;;;;;32.90;10.93;;;;;;;;;;351006;28;660;-74
2021/07/18 16:38:20;;;;;;;35.03;11.49;;;;;;;;;;601589;27;3148836;-74
2021/07/18 16:39:06;;;;;;;37.88;10.52;;;;;;;;;;351497;28;921;-74
2021/07/18 16:39:41;;;;;;;45.47;11.60;;;;;;;;;;350820;28;935;-73
2021/07/18 16:40:25;;;;;;;32.78;11.07;;;;;;;;;;349728;28;6347;-76
2021/07/18 16:47:31;;;;;;;33.92;9.65;;;;;;;;;;349588;28;726;-69
2021/07/18 16:48:02;;;;;;;37.97;9.38;;;;;;;;;;349626;28;687;-70
2021/07/18 16:48:32;;;;;;;33.22;9.90;;;;;;;;;;349474;28;683;-69
2021/07/18 16:49:03;;;;;;;34.95;8.88;;;;;;;;;;349488;28;746;-69
2021/07/18 16:49:33;;;;;;;35.95;8.45;;;;;;;;;;349446;28;675;-70
2021/07/18 16:50:04;;;;;;;42.17;9.52;;;;;;;;;;349486;28;679;-69
2021/07/18 16:50:37;;;;;;;33.60;8.70;;;;;;;;;;349459;28;709;-69
2021/07/18 16:51:11;;;;;;;47.97;9.57;;;;;;;;;;349200;28;727;-70
2021/07/18 16:51:41;;;;;;;33.97;9.68;;;;;;;;;;348053;28;695;-70
2021/07/18 16:52:12;;;;;;;32.55;8.02;;;;;;;;;;348969;28;691;-70
2021/07/18 16:52:43;;;;;;;36.83;8.02;;;;;;;;;;349485;28;777;-70
2021/07/18 16:53:14;;;;;;;30.38;7.65;;;;;;;;;;349507;28;679;-70
2021/07/18 16:53:45;;;;;;;29.40;7.25;;;;;;;;;;348067;28;758;-69
2021/07/18 16:54:15;;;;;;;28.42;9.52;;;;;;;;;;346748;28;687;-69
2021/07/18 16:54:45;;;;;;;36.40;8.23;;;;;;;;;;348056;28;778;-69
2021/07/18 16:55:37;;;;;;;51.65;9.95;;;;;;;;;;323581;28;65967;-68
